createdAt,value
2022-09-15T00:01:15.515Z,20.41
2022-09-15T00:04:31.507Z,20.48
2022-09-15T00:07:33.942Z,20.52
2022-09-15T00:11:28.515Z,20.55
2022-09-15T00:14:43.506Z,20.55
2022-09-15T00:17:56.524Z,20.51
2022-09-15T00:21:18.525Z,20.43
2022-09-15T00:24:20.724Z,20.29
2022-09-15T00:27:42.539Z,20.24
2022-09-15T00:30:47.657Z,20.16
2022-09-15T00:34:05.562Z,20.10
2022-09-15T00:37:20.536Z,20.06
2022-09-15T00:40:29.276Z,20.03
2022-09-15T00:43:57.523Z,20.05
2022-09-15T00:47:18.280Z,20.05
2022-09-15T00:50:34.516Z,20.05
2022-09-15T00:53:50.562Z,20.04
2022-09-15T00:56:56.991Z,20.07
2022-09-15T01:00:16.494Z,20.11
2022-09-15T01:03:26.102Z,20.11
2022-09-15T01:06:44.549Z,20.10
2022-09-15T01:09:59.519Z,20.10
2022-09-15T01:13:11.632Z,20.12
2022-09-15T01:20:20.238Z,20.16
2022-09-15T01:23:34.487Z,20.14
2022-09-15T01:26:52.480Z,20.13
2022-09-15T01:30:14.986Z,20.12
2022-09-15T01:33:51.504Z,20.12
2022-09-15T01:37:24.487Z,20.11
2022-09-15T01:40:40.044Z,20.10
2022-09-15T01:44:01.547Z,20.07
2022-09-15T01:47:14.868Z,20.06
2022-09-15T01:50:29.560Z,20.03
2022-09-15T01:53:38.603Z,20.02
2022-09-15T01:56:47.538Z,20.00
2022-09-15T01:59:56.762Z,19.96
2022-09-15T02:03:11.580Z,19.98
2022-09-15T02:07:02.258Z,19.99
2022-09-15T02:10:16.564Z,19.99
2022-09-15T02:13:31.542Z,19.98
2022-09-15T02:16:35.840Z,19.98
2022-09-15T02:20:09.546Z,19.99
2022-09-15T02:23:24.554Z,20.00
2022-09-15T02:26:42.101Z,19.98
2022-09-15T02:29:54.548Z,19.94
2022-09-15T02:33:06.545Z,19.92
2022-09-15T02:36:25.540Z,19.88
2022-09-15T02:39:39.527Z,19.89
2022-09-15T02:43:00.559Z,19.90
2022-09-15T02:46:15.610Z,19.91
2022-09-15T02:49:17.771Z,19.91
2022-09-15T02:52:32.556Z,19.89
2022-09-15T02:55:41.367Z,19.90
2022-09-15T02:58:50.546Z,19.90
2022-09-15T03:02:05.593Z,19.92
2022-09-15T03:05:22.540Z,19.91
2022-09-15T03:08:37.566Z,19.91
2022-09-15T03:11:39.689Z,19.91
2022-09-15T03:14:55.580Z,19.89
2022-09-15T03:18:04.549Z,19.88
2022-09-15T03:21:15.045Z,19.83
2022-09-15T03:24:29.572Z,19.80
2022-09-15T03:27:45.150Z,19.76
2022-09-15T03:30:53.555Z,19.74
2022-09-15T03:34:02.348Z,19.73
2022-09-15T03:37:11.565Z,19.72
2022-09-15T03:40:27.645Z,19.69
2022-09-15T03:43:31.146Z,19.71
2022-09-15T03:46:45.563Z,19.73
2022-09-15T03:49:54.522Z,19.73
2022-09-15T03:53:03.542Z,19.68
2022-09-15T03:56:18.262Z,19.68
2022-09-15T03:59:32.541Z,19.64
2022-09-15T04:02:34.962Z,19.67
2022-09-15T04:05:49.573Z,19.67
2022-09-15T04:08:53.407Z,19.67
2022-09-15T04:12:09.579Z,19.69
2022-09-15T04:15:20.447Z,19.73
2022-09-15T04:18:36.551Z,19.75
2022-09-15T04:21:45.372Z,19.79
2022-09-15T04:24:54.565Z,19.83
2022-09-15T04:28:16.581Z,19.86
2022-09-15T04:31:31.637Z,19.87
2022-09-15T04:34:46.568Z,19.87
2022-09-15T04:37:49.041Z,19.89
2022-09-15T04:41:05.563Z,19.90
2022-09-15T04:44:14.561Z,19.92
2022-09-15T04:47:23.682Z,19.90
2022-09-15T04:50:38.561Z,19.93
2022-09-15T04:53:40.817Z,19.96
2022-09-15T04:56:56.566Z,19.96
2022-09-15T05:00:12.579Z,19.97
2022-09-15T05:03:27.571Z,19.96
2022-09-15T05:06:45.590Z,19.98
2022-09-15T05:09:47.617Z,19.99
2022-09-15T05:13:02.598Z,20.02
2022-09-15T05:16:16.801Z,20.05
2022-09-15T05:19:31.572Z,20.06
2022-09-15T05:22:46.584Z,20.07
2022-09-15T05:26:00.576Z,20.11
2022-09-15T05:29:22.568Z,20.17
2022-09-15T05:32:24.799Z,20.19
2022-09-15T05:35:39.575Z,20.22
2022-09-15T05:38:48.352Z,20.20
2022-09-15T05:41:56.591Z,20.20
2022-09-15T05:45:05.895Z,20.20
2022-09-15T05:48:15.555Z,20.23
2022-09-15T05:51:24.891Z,20.25
2022-09-15T05:54:33.586Z,20.28
2022-09-15T05:57:42.319Z,20.32
2022-09-15T06:00:50.585Z,20.37
2022-09-15T06:04:05.606Z,20.42
2022-09-15T06:07:21.582Z,20.53
2022-09-15T06:10:30.614Z,20.67
2022-09-15T06:13:46.576Z,20.70
2022-09-15T06:17:01.605Z,20.69
2022-09-15T06:20:10.636Z,20.73
2022-09-15T06:23:25.606Z,20.76
2022-09-15T06:26:28.445Z,20.74
2022-09-15T06:29:50.581Z,20.71
2022-09-15T06:32:52.472Z,20.70
2022-09-15T06:36:08.528Z,20.72
2022-09-15T06:39:23.588Z,20.73
2022-09-15T06:42:32.591Z,20.76
2022-09-15T06:45:41.374Z,20.86
2022-09-15T06:48:50.581Z,20.87
2022-09-15T06:52:06.613Z,20.91
2022-09-15T06:55:15.281Z,20.96
2022-09-15T06:58:29.592Z,20.96
2022-09-15T07:01:32.696Z,21.01
2022-09-15T07:04:47.592Z,21.10
2022-09-15T07:07:56.186Z,21.20
2022-09-15T07:11:10.605Z,21.30
2022-09-15T07:14:25.606Z,21.36
2022-09-15T07:17:28.837Z,21.47
2022-09-15T07:20:45.585Z,21.54
2022-09-15T07:24:07.378Z,21.62
2022-09-15T07:27:09.610Z,21.73
2022-09-15T07:30:31.613Z,21.81
2022-09-15T07:33:46.598Z,22.02
2022-09-15T07:37:01.625Z,22.22
2022-09-15T07:40:10.854Z,22.56
2022-09-15T07:43:19.612Z,22.88
2022-09-15T07:46:37.584Z,23.27
2022-09-15T07:49:46.613Z,23.30
2022-09-15T07:53:02.593Z,23.25
2022-09-15T07:56:17.609Z,23.12
2022-09-15T07:59:32.612Z,23.22
2022-09-15T08:02:47.589Z,23.41
2022-09-15T08:05:49.643Z,23.44
2022-09-15T08:09:04.844Z,23.32
2022-09-15T08:12:08.098Z,23.22
2022-09-15T08:15:23.620Z,23.23
2022-09-15T08:18:39.624Z,23.41
2022-09-15T08:21:48.662Z,23.60
2022-09-15T08:24:57.521Z,23.62
2022-09-15T08:28:06.612Z,23.95
2022-09-15T08:31:22.663Z,23.96
2022-09-15T08:34:31.416Z,24.18
2022-09-15T08:37:40.616Z,24.32
2022-09-15T08:40:50.109Z,24.59
2022-09-15T08:44:04.611Z,24.75
2022-09-15T08:47:45.624Z,24.89
2022-09-15T08:50:58.058Z,25.13
2022-09-15T08:54:13.633Z,25.11
2022-09-15T08:57:31.627Z,25.57
2022-09-15T09:00:43.249Z,25.61
2022-09-15T09:04:00.702Z,25.91
2022-09-15T09:07:37.051Z,26.38
2022-09-15T09:10:59.607Z,26.24
2022-09-15T09:14:23.625Z,26.30
2022-09-15T09:17:56.584Z,26.49
2022-09-15T09:21:36.609Z,26.88
2022-09-15T09:24:54.661Z,27.11
2022-09-15T09:28:23.995Z,27.32
2022-09-15T09:31:41.642Z,27.31
2022-09-15T09:34:54.989Z,27.19
2022-09-15T09:38:10.638Z,27.55
2022-09-15T09:41:29.623Z,27.64
2022-09-15T09:44:46.621Z,27.96
2022-09-15T09:48:02.084Z,28.22
2022-09-15T09:51:54.639Z,28.30
2022-09-15T09:55:07.640Z,28.30
2022-09-15T09:58:29.692Z,28.55
2022-09-15T10:01:44.697Z,28.59
2022-09-15T10:04:59.670Z,28.28
2022-09-15T10:08:22.635Z,28.07
2022-09-15T10:11:46.664Z,27.84
2022-09-15T10:14:58.264Z,27.69
2022-09-15T10:18:13.640Z,27.50
2022-09-15T10:21:24.396Z,27.36
2022-09-15T10:24:46.643Z,27.13
2022-09-15T10:28:17.639Z,26.99
2022-09-15T10:31:32.307Z,27.00
2022-09-15T10:34:48.782Z,26.94
2022-09-15T10:38:14.926Z,27.03
2022-09-15T10:41:34.661Z,27.41
2022-09-15T10:45:07.657Z,28.06
2022-09-15T10:48:24.707Z,28.42
2022-09-15T10:51:52.684Z,28.95
2022-09-15T10:55:27.635Z,29.24
2022-09-15T10:59:01.647Z,29.38
2022-09-15T11:02:19.765Z,28.82
2022-09-15T11:06:01.707Z,28.51
2022-09-15T11:09:19.691Z,28.11
2022-09-15T11:12:52.352Z,27.60
2022-09-15T11:16:08.673Z,27.34
2022-09-15T11:19:32.688Z,27.25
2022-09-15T11:22:50.398Z,27.27
2022-09-15T11:26:18.682Z,27.26
2022-09-15T11:29:58.434Z,26.99
2022-09-15T11:33:29.666Z,26.77
2022-09-15T11:36:50.678Z,26.66
2022-09-15T11:40:27.600Z,26.44
2022-09-15T11:43:40.670Z,26.39
2022-09-15T11:47:04.830Z,26.26
2022-09-15T11:50:28.691Z,26.35
2022-09-15T11:53:36.662Z,26.40
2022-09-15T11:56:47.119Z,26.34
2022-09-15T12:00:09.674Z,26.45
2022-09-15T12:03:38.684Z,26.53
2022-09-15T12:07:12.330Z,26.54
2022-09-15T12:10:41.677Z,26.50
2022-09-15T12:13:57.664Z,26.41
2022-09-15T12:17:07.728Z,26.22
2022-09-15T12:20:42.671Z,26.08
2022-09-15T12:23:58.357Z,25.99
2022-09-15T12:27:24.659Z,26.02
2022-09-15T12:30:45.690Z,25.99
2022-09-15T12:34:08.748Z,26.01
2022-09-15T12:37:18.153Z,25.99
2022-09-15T12:40:36.727Z,25.97
2022-09-15T12:43:38.724Z,26.09
2022-09-15T12:47:00.682Z,26.26
2022-09-15T12:50:21.729Z,26.41
2022-09-15T12:53:59.037Z,26.42
2022-09-15T12:57:25.691Z,26.22
2022-09-15T13:01:06.868Z,26.12
2022-09-15T13:04:32.680Z,25.91
2022-09-15T13:08:03.714Z,25.59
2022-09-15T13:11:40.753Z,25.46
2022-09-15T13:15:10.737Z,25.07
2022-09-15T13:18:21.935Z,21.53
2022-09-15T13:21:39.695Z,19.67
2022-09-15T13:25:01.698Z,19.59
2022-09-15T13:28:18.728Z,19.65
2022-09-15T13:31:55.715Z,19.63
2022-09-15T13:35:48.712Z,19.91
2022-09-15T13:38:59.736Z,20.15
2022-09-15T13:42:26.452Z,20.32
2022-09-15T13:46:13.759Z,20.40
2022-09-15T13:50:01.739Z,20.36
2022-09-15T13:53:13.727Z,20.30
2022-09-15T13:56:32.781Z,20.29
2022-09-15T13:59:47.712Z,20.27
2022-09-15T14:03:16.697Z,20.31
2022-09-15T14:06:43.714Z,20.19
2022-09-15T14:09:58.698Z,20.24
2022-09-15T14:13:01.928Z,20.19
2022-09-15T14:16:41.759Z,20.19
2022-09-15T14:19:52.395Z,20.08
2022-09-15T14:23:01.701Z,20.07
2022-09-15T14:26:20.713Z,20.01
2022-09-15T14:29:47.701Z,20.05
2022-09-15T14:33:08.708Z,20.05
2022-09-15T14:36:37.732Z,20.08
2022-09-15T14:39:39.579Z,20.07
2022-09-15T14:42:55.718Z,20.06
2022-09-15T14:46:13.838Z,20.06
2022-09-15T14:49:29.717Z,20.01
2022-09-15T14:52:37.917Z,19.96
2022-09-15T14:56:08.328Z,19.92
2022-09-15T14:59:26.969Z,19.93
2022-09-15T15:02:53.751Z,19.94
2022-09-15T15:06:28.432Z,19.68
2022-09-15T15:09:41.615Z,19.65
2022-09-15T15:13:08.726Z,19.64
2022-09-15T15:16:30.406Z,19.66
2022-09-15T15:19:48.744Z,19.72
2022-09-15T15:23:22.716Z,19.70
2022-09-15T15:26:43.733Z,19.74
2022-09-15T15:29:58.717Z,19.67
2022-09-15T15:33:29.739Z,19.63
2022-09-15T15:36:38.281Z,19.59
2022-09-15T15:39:53.773Z,19.59
2022-09-15T15:43:29.743Z,19.64
2022-09-15T15:46:59.736Z,19.64
2022-09-15T15:50:24.723Z,19.68
2022-09-15T15:53:32.711Z,19.70
2022-09-15T15:56:41.292Z,19.75
2022-09-15T15:59:57.790Z,19.76
2022-09-15T16:03:05.753Z,19.82
2022-09-15T16:06:14.313Z,19.81
2022-09-15T16:09:24.742Z,19.84
2022-09-15T16:12:35.375Z,19.78
2022-09-15T16:15:51.828Z,19.83
2022-09-15T16:18:53.752Z,19.79
2022-09-15T16:22:09.782Z,19.78
2022-09-15T16:25:16.901Z,19.77
2022-09-15T16:28:31.756Z,19.80
2022-09-15T16:31:46.805Z,19.71
2022-09-15T16:35:01.727Z,19.61
2022-09-15T16:38:03.613Z,19.60
2022-09-15T16:41:23.732Z,19.60
2022-09-15T16:44:38.726Z,19.58
2022-09-15T16:47:53.741Z,19.57
2022-09-15T16:51:27.902Z,19.57
2022-09-15T16:54:45.713Z,19.53
2022-09-15T16:57:47.721Z,19.47
2022-09-15T17:01:03.894Z,19.45
2022-09-15T17:04:20.727Z,19.43
2022-09-15T17:07:36.613Z,19.41
2022-09-15T17:10:53.037Z,19.32
2022-09-15T17:14:01.294Z,19.26
2022-09-15T17:17:10.750Z,19.25
2022-09-15T17:20:26.753Z,19.24
2022-09-15T17:23:35.339Z,19.18
2022-09-15T17:26:49.975Z,19.19
2022-09-15T17:30:06.070Z,19.17
2022-09-15T17:33:19.744Z,19.18
2022-09-15T17:36:28.660Z,19.18
2022-09-15T17:39:43.848Z,19.16
2022-09-15T17:42:53.771Z,19.12
2022-09-15T17:46:02.278Z,19.08
2022-09-15T17:49:16.760Z,19.02
2022-09-15T17:52:25.319Z,18.97
2022-09-15T17:55:40.908Z,18.99
2022-09-15T17:58:55.905Z,18.99
2022-09-15T18:01:58.134Z,18.97
2022-09-15T18:05:15.059Z,18.92
2022-09-15T18:08:24.047Z,18.86
2022-09-15T18:11:32.679Z,18.81
2022-09-15T18:14:41.028Z,18.79
2022-09-15T18:17:58.075Z,18.81
2022-09-15T18:21:17.127Z,18.83
2022-09-15T18:24:31.752Z,18.86
2022-09-15T18:27:33.751Z,18.81
2022-09-15T18:30:57.192Z,18.77
2022-09-15T18:34:12.024Z,18.77
2022-09-15T18:37:21.067Z,18.74
2022-09-15T18:40:36.004Z,18.72
2022-09-15T18:43:38.156Z,18.69
2022-09-15T18:46:52.900Z,18.66
2022-09-15T18:49:54.690Z,18.65
2022-09-15T18:53:13.624Z,18.59
2022-09-15T18:56:28.810Z,18.56
2022-09-15T18:59:30.949Z,18.60
2022-09-15T19:02:46.036Z,18.62
2022-09-15T19:05:55.116Z,18.64
2022-09-15T19:09:03.677Z,18.63
2022-09-15T19:12:19.213Z,18.65
2022-09-15T19:15:27.448Z,18.66
2022-09-15T19:18:41.885Z,18.66
2022-09-15T19:21:58.046Z,18.60
2022-09-15T19:25:08.698Z,18.62
2022-09-15T19:28:20.154Z,18.57
2022-09-15T19:31:41.676Z,18.58
2022-09-15T19:34:51.983Z,18.50
2022-09-15T19:38:00.764Z,18.55
2022-09-15T19:41:18.791Z,18.56
2022-09-15T19:44:20.775Z,18.55
2022-09-15T19:47:35.799Z,18.51
2022-09-15T19:50:54.888Z,18.51
2022-09-15T19:53:58.043Z,18.49
2022-09-15T19:57:12.936Z,18.48
2022-09-15T20:00:27.782Z,18.44
2022-09-15T20:03:32.507Z,18.41
2022-09-15T20:06:47.715Z,18.40
2022-09-15T20:09:56.763Z,18.37
2022-09-15T20:13:11.724Z,18.40
2022-09-15T20:16:19.048Z,18.42
2022-09-15T20:19:33.724Z,18.44
2022-09-15T20:22:42.200Z,18.46
2022-09-15T20:26:04.718Z,18.44
2022-09-15T20:29:20.763Z,18.46
2022-09-15T20:32:42.820Z,18.46
2022-09-15T20:35:51.285Z,18.44
2022-09-15T20:38:59.773Z,18.43
2022-09-15T20:42:14.777Z,18.42
2022-09-15T20:45:32.778Z,18.41
2022-09-15T20:48:50.759Z,18.40
2022-09-15T20:51:52.531Z,18.40
2022-09-15T20:55:07.762Z,18.43
2022-09-15T20:58:22.790Z,18.40
2022-09-15T21:01:43.765Z,18.38
2022-09-15T21:04:51.779Z,18.34
2022-09-15T21:08:06.754Z,18.37
2022-09-15T21:11:17.923Z,18.38
2022-09-15T21:14:32.771Z,18.41
2022-09-15T21:17:40.804Z,18.39
2022-09-15T21:20:58.940Z,18.38
2022-09-15T21:24:09.795Z,18.38
2022-09-15T21:27:18.344Z,18.41
2022-09-15T21:30:26.786Z,18.40
2022-09-15T21:33:42.761Z,18.41
2022-09-15T21:36:44.467Z,18.42
2022-09-15T21:39:58.815Z,18.40
2022-09-15T21:43:14.782Z,18.42
2022-09-15T21:46:32.783Z,18.44
2022-09-15T21:49:40.776Z,18.44
2022-09-15T21:52:55.782Z,18.46
2022-09-15T21:56:12.787Z,18.40
2022-09-15T21:59:14.594Z,18.41
2022-09-15T22:02:29.850Z,18.41
2022-09-15T22:05:31.692Z,18.41
2022-09-15T22:08:46.892Z,18.41
2022-09-15T22:11:57.056Z,18.38
2022-09-15T22:15:05.783Z,18.33
2022-09-15T22:18:20.805Z,18.25
2022-09-15T22:21:30.283Z,18.18
2022-09-15T22:24:46.205Z,18.13
2022-09-15T22:27:48.079Z,18.07
2022-09-15T22:31:12.865Z,18.04
2022-09-15T22:34:14.823Z,17.98
2022-09-15T22:37:30.781Z,17.97
2022-09-15T22:40:39.445Z,17.95
2022-09-15T22:43:55.869Z,17.94
2022-09-15T22:47:03.815Z,17.92
2022-09-15T22:50:18.843Z,17.91
2022-09-15T22:53:20.650Z,17.93
2022-09-15T22:56:35.810Z,17.96
2022-09-15T22:59:37.493Z,17.96
2022-09-15T23:02:51.807Z,17.94
2022-09-15T23:06:00.691Z,17.91
2022-09-15T23:09:17.797Z,17.92
2022-09-15T23:12:36.821Z,17.89
2022-09-15T23:15:38.587Z,17.88
2022-09-15T23:18:53.789Z,17.83
2022-09-15T23:22:05.785Z,17.85
2022-09-15T23:25:20.791Z,17.80
2022-09-15T23:28:30.255Z,17.81
2022-09-15T23:31:51.880Z,17.77
2022-09-15T23:34:53.851Z,17.76
2022-09-15T23:38:08.783Z,17.73
2022-09-15T23:41:18.835Z,17.78
2022-09-15T23:44:27.335Z,17.80
2022-09-15T23:47:41.837Z,17.76
2022-09-15T23:50:50.375Z,17.77
2022-09-15T23:54:04.822Z,17.77
2022-09-15T23:57:19.834Z,17.70
